This is the latest recevied weather packets stored in our database for station/object KO6HRZ. If no packets are shown the sender has not sent any weather packets the latest 10 day(s).
| Time | Temp. | Humidity | Pressure | Rain* | Wind** | Luminosity | Snow |
|---|---|---|---|---|---|---|---|
| 1777435699 | 17.78° C | 69% | 1018.4 hPa | 0 mm | - | 0 W/m² | - |
| 1777435096 | 18.33° C | 66% | 1018.4 hPa | 0 mm | - | 0 W/m² | - |
| 1777434491 | 18.89° C | 64% | 1018.2 hPa | 0 mm | - | 0 W/m² | - |
| 1777433885 | 18.89° C | 62% | 1018.1 hPa | 0 mm | - | 0 W/m² | - |
| 1777433282 | 19.44° C | 59% | 1018.1 hPa | 0 mm | - | 0 W/m² | - |
| 1777432679 | 19.44° C | 59% | 1018.1 hPa | 0 mm | - | 0 W/m² | - |
| 1777432076 | 20° C | 57% | 1017.9 hPa | 0 mm | - | 0 W/m² | - |
| 1777431474 | 20.56° C | 56% | 1017.8 hPa | 0 mm | - | 2 W/m² | - |
| 1777430871 | 21.11° C | 51% | 1017.6 hPa | 0 mm | - | 7 W/m² | - |
| 1777430269 | 21.67° C | 48% | 1017.6 hPa | 0 mm | - | 13 W/m² | - |
| 1777429667 | 21.67° C | 49% | 1017.4 hPa | 0 mm | - | 20 W/m² | - |
| 1777429064 | 22.78° C | 45% | 1017.4 hPa | 0 mm | - | 27 W/m² | - |
| 1777428463 | 23.33° C | 41% | 1017.4 hPa | 0 mm | - | 33 W/m² | - |
| 1777427861 | 23.33° C | 43% | 1017.4 hPa | 0 mm | - | 40 W/m² | - |
| 1777427259 | 23.33° C | 41% | 1017.5 hPa | 0 mm | - | 45 W/m² | - |
| 1777426653 | 23.89° C | 41% | 1017.4 hPa | 0 mm | - | 127 W/m² | - |
| 1777426052 | 24.44° C | 41% | 1017.5 hPa | 0 mm | - | 52 W/m² | - |
| 1777425447 | 24.44° C | 43% | 1017.6 hPa | 0 mm | - | 55 W/m² | - |
| 1777424846 | 23.89° C | 43% | 1017.6 hPa | 0 mm | - | 60 W/m² | - |
| 1777424243 | 24.44° C | 42% | 1017.6 hPa | 0 mm | - | 66 W/m² | - |
| 1777423642 | 24.44° C | 44% | 1017.9 hPa | 0 mm | - | 66 W/m² | - |
| 1777423039 | 23.89° C | 43% | 1017.8 hPa | 0 mm | - | 162 W/m² | - |
| 1777422435 | 24.44° C | 44% | 1017.7 hPa | 0 mm | - | 197 W/m² | - |
| 1777421836 | 25.56° C | 42% | 1017.8 hPa | 0 mm | - | 353 W/m² | - |
| 1777421233 | 25° C | 43% | 1017.9 hPa | 0 mm | - | 439 W/m² | - |
* Rain latest hour (hover to see other rain measurements)
** Current wind speed in m/s (hover to see current wind gust speed)